Time;durP1;ratioP1;P1;durP2;ratioP2;P2;SDS_P1;SDS_P2;PMS_P1;PMS_P2;Temp;Humidity;BMP_temperature;BMP_pressure;BME280_temperature;BME280_humidity;BME280_pressure;Samples;Min_cycle;Max_cycle;Signal;HPM_P1;HPM_P2
2022/05/19 00:01:01;;;;;;;16.80;11.15;;;21.10;99.90;;;;;;5014511;28;20093;-64
2022/05/19 00:03:26;;;;;;;13.05;10.90;;;21.10;99.90;;;;;;5016538;28;20041;-63
2022/05/19 00:05:52;;;;;;;16.30;11.57;;;21.10;99.90;;;;;;5016532;28;20037;-63
2022/05/19 00:08:18;;;;;;;15.05;11.48;;;21.00;99.90;;;;;;5016541;28;20096;-63
2022/05/19 00:10:44;;;;;;;14.68;10.95;;;21.00;99.90;;;;;;5015809;28;20092;-64
2022/05/19 00:13:09;;;;;;;14.70;11.18;;;20.90;99.90;;;;;;5016659;28;20333;-63
2022/05/19 00:15:35;;;;;;;14.00;11.40;;;20.90;99.90;;;;;;5016521;28;20034;-64
2022/05/19 00:18:01;;;;;;;15.07;11.38;;;21.00;99.90;;;;;;5017832;28;20117;-63
2022/05/19 00:20:27;;;;;;;16.75;12.15;;;21.00;99.90;;;;;;5020352;28;20030;-64
2022/05/19 00:22:54;;;;;;;14.77;11.30;;;21.10;99.90;;;;;;5020068;28;20026;-64
2022/05/19 00:25:21;;;;;;;16.73;11.70;;;21.20;99.90;;;;;;5020001;28;20038;-63
2022/05/19 00:27:47;;;;;;;14.02;11.18;;;21.20;99.90;;;;;;5019925;28;20070;-64
2022/05/19 00:30:13;;;;;;;13.95;11.15;;;21.20;99.90;;;;;;5019163;28;20398;-63
2022/05/19 00:32:39;;;;;;;14.18;10.60;;;21.20;99.90;;;;;;5019821;28;20037;-64
2022/05/19 00:35:05;;;;;;;15.80;11.63;;;21.30;99.90;;;;;;5019902;28;20038;-63
2022/05/19 00:37:31;;;;;;;18.50;12.10;;;21.40;99.90;;;;;;5019711;28;20034;-64
2022/05/19 00:39:57;;;;;;;13.00;10.88;;;21.50;99.90;;;;;;5019777;28;20176;-64
2022/05/19 00:45:08;;;;;;;15.15;12.02;;;21.20;99.90;;;;;;5020238;28;20053;-64
2022/05/19 00:47:39;;;;;;;14.68;12.20;;;21.10;99.90;;;;;;5019610;28;20344;-64
2022/05/19 00:50:11;;;;;;;14.60;12.02;;;21.00;99.90;;;;;;5019675;28;20030;-63
2022/05/19 00:52:40;;;;;;;14.23;12.07;;;21.00;99.90;;;;;;5019571;28;20304;-63
2022/05/19 00:55:14;;;;;;;18.75;12.25;;;21.00;99.90;;;;;;5019535;28;20313;-63
2022/05/19 00:58:04;;;;;;;17.35;11.50;;;21.00;99.90;;;;;;5019502;28;20034;-63
2022/05/19 01:00:30;;;;;;;14.82;11.93;;;21.00;99.90;;;;;;5019346;28;20050;-63
2022/05/19 01:03:00;;;;;;;13.32;11.77;;;21.10;99.90;;;;;;5019313;28;20041;-63
2022/05/19 01:05:48;;;;;;;14.27;11.75;;;21.10;99.90;;;;;;5019264;28;20307;-63
2022/05/19 01:08:16;;;;;;;14.50;11.52;;;21.10;99.90;;;;;;5019317;28;20040;-63
2022/05/19 01:10:43;;;;;;;14.57;11.57;;;21.20;99.90;;;;;;5019639;28;20095;-63
2022/05/19 01:13:11;;;;;;;18.02;12.00;;;21.40;99.90;;;;;;5019113;28;20034;-63
2022/05/19 01:15:48;;;;;;;15.38;11.85;;;21.40;99.90;;;;;;5018388;28;20038;-63
2022/05/19 01:18:16;;;;;;;15.30;12.10;;;21.60;99.90;;;;;;5018930;28;20033;-63
2022/05/19 01:20:44;;;;;;;13.82;11.02;;;21.70;99.90;;;;;;5018989;28;20029;-64
2022/05/19 01:23:50;;;;;;;17.15;12.25;;;21.60;99.90;;;;;;5018876;28;20033;-63
2022/05/19 01:26:28;;;;;;;12.77;11.38;;;21.70;99.90;;;;;;5007802;28;20037;-63
2022/05/19 01:28:57;;;;;;;13.57;11.93;;;21.70;99.90;;;;;;5018262;28;20088;-63
2022/05/19 01:31:48;;;;;;;15.75;11.73;;;21.80;99.90;;;;;;5018890;28;20030;-63
2022/05/19 01:34:16;;;;;;;16.27;11.60;;;21.80;99.90;;;;;;5012089;28;20112;-63
2022/05/19 01:36:42;;;;;;;15.45;11.82;;;21.80;99.90;;;;;;5018571;28;20051;-63
2022/05/19 01:39:15;;;;;;;13.77;11.30;;;21.80;99.90;;;;;;5018712;28;20329;-63
2022/05/19 01:42:09;;;;;;;14.48;12.10;;;21.70;99.90;;;;;;5018941;28;20264;-63
2022/05/19 01:44:57;;;;;;;16.80;11.75;;;21.90;99.90;;;;;;5019134;28;20034;-63
2022/05/19 01:47:38;;;;;;;15.20;12.00;;;21.70;99.90;;;;;;5018636;28;20053;-63
2022/05/19 01:50:31;;;;;;;15.75;11.77;;;21.80;99.90;;;;;;5018514;28;20045;-63
2022/05/19 01:53:04;;;;;;;18.02;12.38;;;21.90;99.90;;;;;;5018666;28;20448;-64
2022/05/19 01:55:45;;;;;;;14.88;11.80;;;22.00;99.90;;;;;;5018425;28;20026;-64
2022/05/19 01:58:47;;;;;;;17.85;12.85;;;22.20;99.90;;;;;;5018472;28;20428;-64
2022/05/19 02:01:17;;;;;;;16.55;12.52;;;22.00;99.90;;;;;;5018765;28;20116;-66
2022/05/19 02:04:16;;;;;;;20.42;13.15;;;22.00;99.90;;;;;;5018160;28;20049;-66
2022/05/19 02:07:00;;;;;;;19.60;12.43;;;21.80;99.90;;;;;;5018040;28;20025;-64
2022/05/19 02:09:32;;;;;;;18.05;12.50;;;21.90;99.90;;;;;;5018121;28;20133;-65
2022/05/19 02:12:00;;;;;;;15.95;12.85;;;22.10;99.90;;;;;;5018325;28;20385;-64
2022/05/19 02:14:37;;;;;;;15.57;12.30;;;22.40;99.90;;;;;;5017897;28;20117;-65
2022/05/19 02:17:08;;;;;;;21.65;12.43;;;22.50;99.90;;;;;;5017225;28;20065;-64
2022/05/19 02:19:42;;;;;;;16.80;12.00;;;22.50;99.90;;;;;;5018237;28;20061;-65
2022/05/19 02:22:09;;;;;;;;;;;22.50;99.90;;;;;;5017610;28;20042;-65
2022/05/19 02:24:38;;;;;;;17.08;11.88;;;22.60;99.90;;;;;;5017842;28;19929;-65
2022/05/19 02:27:38;;;;;;;19.67;11.93;;;22.60;99.90;;;;;;5017772;28;20068;-65
2022/05/19 02:30:11;;;;;;;15.18;10.02;;;22.40;99.90;;;;;;5017774;28;20057;-65
2022/05/19 02:32:37;;;;;;;14.95;11.50;;;22.30;99.90;;;;;;5017625;28;20441;-65
2022/05/19 02:35:04;;;;;;;15.85;11.32;;;22.40;99.90;;;;;;5017678;28;20136;-65
2022/05/19 02:37:31;;;;;;;12.70;11.20;;;22.40;99.90;;;;;;5017427;28;20062;-65
2022/05/19 02:39:58;;;;;;;14.02;11.18;;;22.50;99.90;;;;;;5000511;28;20030;-65
2022/05/19 02:42:24;;;;;;;12.05;10.48;;;22.50;99.90;;;;;;5016768;28;20041;-65
2022/05/19 02:44:50;;;;;;;15.07;11.15;;;22.60;99.90;;;;;;5016812;28;20405;-66
2022/05/19 02:47:16;;;;;;;15.93;11.07;;;22.70;99.90;;;;;;5017625;28;20125;-65
2022/05/19 02:49:41;;;;;;;12.02;9.63;;;22.90;99.90;;;;;;5017455;28;20061;-64
2022/05/19 02:52:08;;;;;;;11.80;9.02;;;23.00;99.90;;;;;;5017387;28;20390;-64
2022/05/19 02:54:34;;;;;;;12.38;9.30;;;22.90;99.90;;;;;;5017296;28;20087;-64
2022/05/19 02:57:00;;;;;;;9.95;8.88;;;22.80;99.90;;;;;;5017221;28;20050;-65
2022/05/19 02:59:26;;;;;;;12.73;7.40;;;22.70;99.90;;;;;;5017301;28;20046;-65
2022/05/19 03:01:51;;;;;;;10.40;7.45;;;22.60;99.90;;;;;;5017295;28;20026;-67
2022/05/19 03:04:17;;;;;;;10.80;6.82;;;22.10;99.90;;;;;;5017285;28;20065;-65
2022/05/19 03:06:43;;;;;;;7.53;6.72;;;21.40;99.90;;;;;;5017212;28;20368;-66
2022/05/19 03:09:09;;;;;;;9.52;6.55;;;21.10;99.90;;;;;;5017293;28;20045;-63
2022/05/19 03:11:35;;;;;;;13.20;6.10;;;20.90;99.90;;;;;;5016486;28;20303;-63
2022/05/19 03:14:04;;;;;;;10.07;6.97;;;20.80;99.90;;;;;;5017227;28;20084;-64
2022/05/19 03:16:30;;;;;;;11.82;7.00;;;20.50;99.90;;;;;;5017188;28;20061;-62
2022/05/19 03:18:56;;;;;;;13.05;7.88;;;20.20;99.90;;;;;;5017178;28;20037;-62
2022/05/19 03:21:21;;;;;;;11.85;8.32;;;20.10;99.90;;;;;;5017036;28;20118;-62
2022/05/19 03:23:47;;;;;;;12.50;6.13;;;20.20;99.90;;;;;;5017276;28;20420;-61
2022/05/19 03:26:13;;;;;;;7.60;5.43;;;20.10;99.90;;;;;;5016972;28;20026;-62
2022/05/19 03:28:39;;;;;;;6.85;4.45;;;20.00;99.90;;;;;;5017075;28;20429;-61
2022/05/19 03:31:04;;;;;;;12.02;6.00;;;19.80;99.90;;;;;;5016450;28;20048;-61
2022/05/19 03:33:30;;;;;;;10.40;5.05;;;19.90;99.90;;;;;;5016384;28;20033;-61
2022/05/19 03:36:01;;;;;;;6.45;5.07;;;19.80;99.90;;;;;;5016895;28;20026;-60
2022/05/19 03:38:27;;;;;;;11.10;5.68;;;19.80;99.90;;;;;;5016836;28;20398;-61
2022/05/19 03:40:53;;;;;;;13.05;6.13;;;19.80;99.90;;;;;;5016904;28;20045;-64
2022/05/19 03:43:19;;;;;;;9.98;5.30;;;19.80;99.90;;;;;;5017187;28;20034;-64
2022/05/19 03:45:46;;;;;;;11.48;5.15;;;19.80;99.90;;;;;;5016873;28;20038;-63
2022/05/19 03:48:12;;;;;;;6.68;3.85;;;19.70;99.90;;;;;;5017085;28;20037;-65
2022/05/19 03:50:39;;;;;;;8.55;3.67;;;19.50;99.90;;;;;;5016875;28;20034;-65
2022/05/19 03:53:05;;;;;;;4.18;3.08;;;19.40;99.90;;;;;;5018795;28;20054;-66
2022/05/19 03:55:30;;;;;;;4.68;3.30;;;19.30;99.90;;;;;;5020607;28;20049;-63
2022/05/19 03:57:56;;;;;;;5.03;3.30;;;19.10;99.90;;;;;;5020509;28;20037;-64
2022/05/19 04:00:22;;;;;;;5.32;3.40;;;19.10;99.90;;;;;;5020331;28;20406;-64
2022/05/19 04:02:48;;;;;;;7.25;4.70;;;19.00;99.90;;;;;;5020453;28;20038;-64
2022/05/19 04:05:14;;;;;;;8.07;4.55;;;19.10;99.90;;;;;;5020449;28;20109;-63
2022/05/19 04:07:42;;;;;;;11.90;4.72;;;19.20;99.90;;;;;;5020369;28;20042;-64
2022/05/19 04:10:09;;;;;;;6.90;4.68;;;19.40;99.90;;;;;;5020359;28;20099;-64
2022/05/19 04:12:35;;;;;;;8.77;4.75;;;19.40;99.90;;;;;;5020290;28;20034;-64
2022/05/19 04:15:03;;;;;;;10.23;4.95;;;19.40;99.90;;;;;;5020819;28;20034;-64
2022/05/19 04:17:33;;;;;;;8.30;4.80;;;19.60;99.90;;;;;;5020063;28;20042;-64
2022/05/19 04:20:04;;;;;;;7.07;4.68;;;19.70;99.90;;;;;;5020184;28;20057;-64
2022/05/19 04:22:30;;;;;;;7.43;4.82;;;19.50;99.90;;;;;;5020133;28;20064;-64
2022/05/19 04:24:56;;;;;;;9.13;4.70;;;19.40;99.90;;;;;;5020120;28;20049;-65
2022/05/19 04:27:22;;;;;;;10.65;4.15;;;19.30;99.90;;;;;;5020108;28;20026;-64
2022/05/19 04:29:48;;;;;;;12.18;4.80;;;19.20;99.90;;;;;;5019331;28;20084;-64
2022/05/19 04:32:16;;;;;;;9.35;4.57;;;19.00;99.90;;;;;;5020259;28;20398;-64
2022/05/19 04:34:42;;;;;;;9.73;4.60;;;18.90;99.90;;;;;;5019900;28;20356;-63
2022/05/19 04:37:09;;;;;;;6.88;4.00;;;18.70;99.90;;;;;;5020070;28;20049;-64
2022/05/19 04:39:34;;;;;;;6.88;4.10;;;18.70;99.90;;;;;;5019771;28;20102;-64
2022/05/19 04:42:06;;;;;;;5.85;3.70;;;18.80;99.90;;;;;;5019823;28;20033;-64
2022/05/19 04:44:31;;;;;;;6.97;4.28;;;18.90;99.90;;;;;;5019721;28;20401;-65
2022/05/19 04:46:57;;;;;;;6.90;4.53;;;19.10;99.90;;;;;;5019700;28;20026;-65
2022/05/19 04:49:23;;;;;;;6.82;4.22;;;19.10;99.90;;;;;;5019046;28;20042;-65
2022/05/19 04:51:49;;;;;;;6.47;4.22;;;19.10;99.90;;;;;;5018863;28;20042;-65
2022/05/19 04:54:14;;;;;;;7.60;4.78;;;19.10;99.90;;;;;;5019444;28;20049;-65
2022/05/19 04:56:41;;;;;;;5.90;4.63;;;19.20;99.90;;;;;;5019169;28;20092;-65
2022/05/19 04:59:13;;;;;;;6.22;4.25;;;19.20;99.90;;;;;;5019231;28;20369;-65
2022/05/19 05:01:44;;;;;;;5.97;4.82;;;19.20;99.90;;;;;;5019278;28;20044;-65
2022/05/19 05:04:10;;;;;;;5.75;4.85;;;19.30;99.90;;;;;;5018361;28;20034;-65
2022/05/19 05:06:36;;;;;;;7.45;5.00;;;19.40;99.90;;;;;;5019284;28;20364;-65
2022/05/19 05:09:03;;;;;;;7.70;4.63;;;19.50;99.90;;;;;;5019140;28;20112;-65
2022/05/19 05:11:29;;;;;;;5.05;4.55;;;19.50;99.90;;;;;;5019225;28;20114;-65
2022/05/19 05:13:54;;;;;;;6.07;4.88;;;19.50;99.90;;;;;;5019107;28;20109;-65
2022/05/19 05:16:20;;;;;;;6.45;4.65;;;19.60;99.90;;;;;;5019078;28;20049;-66
2022/05/19 05:18:46;;;;;;;8.75;5.80;;;19.60;99.90;;;;;;5019015;28;20065;-66
2022/05/19 05:21:13;;;;;;;10.90;5.90;;;19.60;99.90;;;;;;5019008;28;20033;-68
2022/05/19 05:23:39;;;;;;;7.20;5.50;;;19.60;99.90;;;;;;5018924;28;20152;-68
2022/05/19 05:26:06;;;;;;;9.57;5.15;;;19.60;99.90;;;;;;5019327;28;20033;-69
2022/05/19 05:28:36;;;;;;;10.10;5.45;;;19.50;99.90;;;;;;5019211;28;20069;-68
2022/05/19 05:31:03;;;;;;;7.80;5.57;;;19.40;99.90;;;;;;5018847;28;20042;-68
2022/05/19 05:33:30;;;;;;;5.97;5.38;;;19.50;99.90;;;;;;5018730;28;20030;-68
2022/05/19 05:35:56;;;;;;;5.85;5.32;;;19.50;99.90;;;;;;5018675;28;20045;-67
2022/05/19 05:38:21;;;;;;;9.07;7.03;;;19.60;99.90;;;;;;5018568;28;20042;-68
2022/05/19 05:40:51;;;;;;;9.98;7.35;;;19.60;99.90;;;;;;5018596;28;20298;-68
2022/05/19 05:43:19;;;;;;;11.43;7.30;;;19.60;99.90;;;;;;5018616;28;20089;-68
2022/05/19 05:45:47;;;;;;;8.20;7.25;;;19.70;99.90;;;;;;5018370;28;20028;-69
2022/05/19 05:48:14;;;;;;;11.63;7.18;;;19.80;99.90;;;;;;5018503;28;20025;-66
2022/05/19 05:50:40;;;;;;;8.32;6.95;;;19.70;99.90;;;;;;5018217;28;20325;-68
2022/05/19 05:53:07;;;;;;;11.38;7.70;;;19.80;99.90;;;;;;5018191;28;20030;-68
2022/05/19 05:55:35;;;;;;;8.90;6.90;;;19.90;99.90;;;;;;5018773;28;20326;-67
2022/05/19 05:58:05;;;;;;;9.07;7.32;;;19.90;99.90;;;;;;5018113;28;20034;-68
2022/05/19 06:00:32;;;;;;;8.93;7.40;;;19.90;99.90;;;;;;5018183;28;20053;-68
2022/05/19 06:02:57;;;;;;;9.15;7.22;;;19.90;99.90;;;;;;5018189;28;20328;-67
2022/05/19 06:05:23;;;;;;;13.05;7.25;;;20.00;99.90;;;;;;5018164;28;20100;-67
2022/05/19 06:07:49;;;;;;;8.80;7.90;;;20.10;99.90;;;;;;5018082;28;20301;-68
2022/05/19 06:10:15;;;;;;;8.70;7.78;;;20.10;99.90;;;;;;5018224;28;20038;-68
2022/05/19 06:12:41;;;;;;;8.88;6.72;;;20.20;99.90;;;;;;5017299;28;20361;-66
2022/05/19 06:15:10;;;;;;;8.52;7.32;;;20.30;99.90;;;;;;5017908;28;20314;-66
2022/05/19 06:17:39;;;;;;;9.23;7.70;;;20.20;99.90;;;;;;5017795;28;20088;-65
2022/05/19 06:20:06;;;;;;;12.60;8.15;;;20.40;99.90;;;;;;5017234;28;20044;-66
2022/05/19 06:22:32;;;;;;;12.73;7.60;;;20.60;99.90;;;;;;5018128;28;20064;-62
2022/05/19 06:24:58;;;;;;;12.55;6.72;;;20.80;99.90;;;;;;5017827;28;20053;-69
2022/05/19 06:27:24;;;;;;;7.72;5.88;;;20.90;99.90;;;;;;5017791;28;20120;-67
2022/05/19 06:29:49;;;;;;;7.90;5.88;;;21.10;99.90;;;;;;5017734;28;20302;-67
2022/05/19 06:32:16;;;;;;;8.13;6.57;;;21.30;99.90;;;;;;5017907;28;20030;-67
2022/05/19 06:34:43;;;;;;;7.68;5.40;;;21.50;99.90;;;;;;5017985;28;20038;-67
2022/05/19 06:37:09;;;;;;;7.30;6.28;;;21.60;99.90;;;;;;5017542;28;20038;-67
2022/05/19 06:39:34;;;;;;;6.80;5.28;;;21.80;99.90;;;;;;5017570;28;20448;-66
2022/05/19 06:42:00;;;;;;;5.10;4.47;;;22.00;99.90;;;;;;5016808;28;20045;-67
2022/05/19 06:44:31;;;;;;;5.55;4.57;;;22.10;99.90;;;;;;5017891;28;20100;-66
2022/05/19 06:46:57;;;;;;;5.95;4.30;;;22.20;99.90;;;;;;5017439;28;20026;-66
2022/05/19 06:49:23;;;;;;;5.57;4.10;;;22.40;99.90;;;;;;5017467;28;20029;-65
2022/05/19 06:51:50;;;;;;;4.72;3.90;;;22.40;99.90;;;;;;5017746;28;20040;-66
2022/05/19 06:54:15;;;;;;;4.30;3.90;;;22.50;99.90;;;;;;5017667;28;20271;-65
2022/05/19 06:56:41;;;;;;;5.88;4.22;;;22.50;99.90;;;;;;5016565;28;20103;-65
2022/05/19 06:59:07;;;;;;;6.03;4.35;;;22.60;99.90;;;;;;5017031;28;20053;-65
2022/05/19 07:01:34;;;;;;;7.43;4.68;;;22.60;99.90;;;;;;5016731;28;20101;-65
2022/05/19 07:04:00;;;;;;;4.68;4.25;;;22.70;99.90;;;;;;5017073;28;20034;-64
2022/05/19 07:06:26;;;;;;;5.75;5.22;;;22.80;99.90;;;;;;5017030;28;20041;-65
2022/05/19 07:08:52;;;;;;;6.57;5.75;;;22.90;99.90;;;;;;5017113;28;20049;-64
2022/05/19 07:11:27;;;;;;;7.20;5.93;;;22.90;99.90;;;;;;5017156;28;20365;-64
2022/05/19 07:13:59;;;;;;;7.95;5.35;;;22.90;99.90;;;;;;5017082;28;20033;-64
2022/05/19 07:16:25;;;;;;;6.07;5.53;;;23.10;99.90;;;;;;5017128;28;20036;-64
2022/05/19 07:18:51;;;;;;;7.43;5.30;;;23.20;99.90;;;;;;5017285;28;20382;-64
2022/05/19 07:21:18;;;;;;;5.80;5.15;;;23.40;99.90;;;;;;5017038;28;20052;-64
2022/05/19 07:23:46;;;;;;;7.45;5.65;;;23.30;99.90;;;;;;5016973;28;20276;-64
2022/05/19 07:26:13;;;;;;;7.18;6.47;;;23.40;99.90;;;;;;5016900;28;20034;-64
2022/05/19 07:28:39;;;;;;;8.15;5.97;;;23.70;99.90;;;;;;5020198;28;20042;-64
2022/05/19 07:31:06;;;;;;;7.65;6.40;;;24.00;99.90;;;;;;5021020;28;20302;-64
2022/05/19 07:33:35;;;;;;;6.72;5.97;;;24.20;99.90;;;;;;5020987;28;20117;-63
2022/05/19 07:36:06;;;;;;;6.20;5.60;;;24.20;99.90;;;;;;5020907;28;20080;-63
2022/05/19 07:38:32;;;;;;;7.82;6.07;;;23.80;99.90;;;;;;5021073;28;20038;-65
2022/05/19 07:40:58;;;;;;;9.57;7.15;;;23.60;99.90;;;;;;5020927;28;20022;-64
2022/05/19 07:43:36;;;;;;;8.27;7.00;;;23.60;99.90;;;;;;5021073;28;20030;-66
2022/05/19 07:46:02;;;;;;;9.80;7.22;;;23.40;99.90;;;;;;5020064;28;20104;-65
2022/05/19 07:48:28;;;;;;;8.38;6.85;;;23.60;99.90;;;;;;5021201;28;20129;-65
2022/05/19 07:50:54;;;;;;;9.15;7.60;;;23.60;99.90;;;;;;5020842;28;20172;-65
2022/05/19 07:53:22;;;;;;;8.65;7.72;;;23.50;99.90;;;;;;5020871;28;20406;-66
2022/05/19 07:55:48;;;;;;;9.35;7.82;;;23.40;99.90;;;;;;5020496;28;20038;-65
2022/05/19 07:58:13;;;;;;;9.25;8.35;;;23.50;99.90;;;;;;5020487;28;20410;-66
2022/05/19 08:00:40;;;;;;;9.82;8.93;;;23.70;99.90;;;;;;5020302;28;20329;-65
2022/05/19 08:03:06;;;;;;;9.65;8.68;;;23.90;99.90;;;;;;5019777;28;20045;-65
2022/05/19 08:05:32;;;;;;;12.48;8.10;;;23.90;99.90;;;;;;5020320;28;20053;-65
2022/05/19 08:07:58;;;;;;;9.85;8.27;;;23.80;99.90;;;;;;5020258;28;20030;-65
2022/05/19 08:10:24;;;;;;;9.93;8.93;;;24.30;99.90;;;;;;5020222;28;20064;-65
2022/05/19 08:15:38;;;;;;;8.07;7.32;;;24.60;99.90;;;;;;5020116;28;20062;-65
2022/05/19 08:18:21;;;;;;;10.20;8.40;;;24.80;99.90;;;;;;5019987;28;20030;-65
2022/05/19 08:20:58;;;;;;;10.90;8.57;;;24.90;99.90;;;;;;5020147;28;20022;-65
2022/05/19 08:23:29;;;;;;;9.80;7.80;;;24.90;99.90;;;;;;5020700;28;20345;-66
2022/05/19 08:25:56;;;;;;;9.10;8.40;;;24.80;99.90;;;;;;5020208;28;20131;-64
2022/05/19 08:28:29;;;;;;;9.18;8.15;;;24.70;99.90;;;;;;5019997;28;20044;-64
2022/05/19 08:30:59;;;;;;;8.15;7.32;;;24.70;99.90;;;;;;5019891;28;20436;-65
2022/05/19 08:33:25;;;;;;;8.10;6.60;;;24.60;99.90;;;;;;5019994;28;20030;-65
2022/05/19 08:35:51;;;;;;;9.90;8.27;;;24.70;99.90;;;;;;5019959;28;20352;-65
2022/05/19 08:38:18;;;;;;;8.70;7.80;;;24.80;99.90;;;;;;5019112;28;20041;-65
2022/05/19 08:40:47;;;;;;;13.35;8.25;;;24.40;99.90;;;;;;5019065;28;20026;-64
2022/05/19 08:43:16;;;;;;;9.63;7.35;;;24.40;99.90;;;;;;5019647;28;20409;-64
2022/05/19 08:45:45;;;;;;;8.65;6.95;;;24.50;99.90;;;;;;5019695;28;20029;-64
2022/05/19 08:48:14;;;;;;;11.05;8.20;;;24.50;99.90;;;;;;5019548;28;20041;-63
2022/05/19 08:50:52;;;;;;;8.63;7.60;;;24.20;99.90;;;;;;5019687;28;20042;-64
2022/05/19 08:53:18;;;;;;;7.03;6.32;;;24.00;99.90;;;;;;5019424;28;20129;-63
2022/05/19 08:55:50;;;;;;;8.90;7.65;;;24.10;99.90;;;;;;5018667;28;20121;-63
2022/05/19 08:58:19;;;;;;;8.73;6.97;;;24.20;99.90;;;;;;5019430;28;20040;-63
2022/05/19 09:00:57;;;;;;;15.38;7.90;;;24.30;99.90;;;;;;5019219;28;20073;-63
2022/05/19 09:03:32;;;;;;;10.75;6.90;;;24.60;99.90;;;;;;5019878;28;20290;-63
2022/05/19 09:06:25;;;;;;;10.90;7.10;;;24.80;99.90;;;;;;5018377;28;20073;-62
2022/05/19 09:09:12;;;;;;;7.85;6.15;;;25.00;99.90;;;;;;5019197;28;20109;-62
2022/05/19 09:11:41;;;;;;;7.38;6.30;;;25.10;99.90;;;;;;5019433;28;20294;-62
2022/05/19 09:14:25;;;;;;;6.53;5.82;;;25.30;99.90;;;;;;5019107;28;20048;-62
2022/05/19 09:17:00;;;;;;;8.27;5.40;;;25.40;99.90;;;;;;5019043;28;20298;-62
2022/05/19 09:19:51;;;;;;;7.88;5.90;;;25.50;99.90;;;;;;5019031;28;20040;-61
2022/05/19 09:22:24;;;;;;;9.57;6.65;;;25.70;99.90;;;;;;5018597;28;20444;-62
2022/05/19 09:24:51;;;;;;;6.00;5.40;;;26.10;99.90;;;;;;5018904;28;20030;-62
2022/05/19 09:27:19;;;;;;;6.38;5.40;;;26.50;99.90;;;;;;5018782;28;20099;-62
2022/05/19 09:29:49;;;;;;;7.15;5.68;;;26.40;99.90;;;;;;5018316;28;20305;-62
2022/05/19 09:32:39;;;;;;;8.05;5.53;;;26.10;99.90;;;;;;5018985;28;20033;-62
2022/05/19 09:35:26;;;;;;;5.88;5.28;;;26.20;99.90;;;;;;5018056;28;20368;-62
2022/05/19 09:38:16;;;;;;;11.48;5.28;;;26.60;99.90;;;;;;5018731;28;20033;-61
2022/05/19 09:40:46;;;;;;;9.15;5.28;;;26.30;99.90;;;;;;5018572;28;20108;-61
2022/05/19 09:43:27;;;;;;;5.53;4.78;;;26.50;99.90;;;;;;5018940;28;20113;-61
2022/05/19 09:46:04;;;;;;;7.13;5.00;;;27.30;99.90;;;;;;5018767;28;20034;-61
2022/05/19 09:48:41;;;;;;;5.80;4.78;;;27.50;99.90;;;;;;5018516;28;20026;-60
2022/05/19 09:51:14;;;;;;;5.90;4.95;;;27.50;99.90;;;;;;5018246;28;20367;-61
2022/05/19 09:53:46;;;;;;;5.75;4.78;;;27.80;99.90;;;;;;5019068;28;20026;-61
2022/05/19 09:56:15;;;;;;;6.97;5.05;;;27.70;99.90;;;;;;5017731;28;20040;-59
2022/05/19 09:58:49;;;;;;;5.38;4.45;;;28.00;99.90;;;;;;5018044;28;20026;-60
2022/05/19 10:01:27;;;;;;;5.22;3.38;;;27.90;99.90;;;;;;5018186;28;20038;-60
2022/05/19 10:04:01;;;;;;;7.63;4.10;;;28.50;99.90;;;;;;5018189;28;20027;-60
2022/05/19 10:06:46;;;;;;;6.93;4.40;;;28.60;99.90;;;;;;5018299;28;20445;-60
2022/05/19 10:09:16;;;;;;;7.32;4.63;;;28.90;99.90;;;;;;5018353;28;20050;-60
2022/05/19 10:11:55;;;;;;;5.28;3.65;;;28.40;99.90;;;;;;5018030;28;20460;-61
2022/05/19 10:14:29;;;;;;;4.50;3.75;;;28.90;99.90;;;;;;5018070;28;20053;-61
2022/05/19 10:17:07;;;;;;;5.57;3.95;;;28.50;99.90;;;;;;5017878;28;20105;-61
2022/05/19 10:19:51;;;;;;;5.10;4.05;;;28.10;99.90;;;;;;5018430;28;20367;-62
2022/05/19 10:22:23;;;;;;;4.28;3.40;;;28.00;99.90;;;;;;5017172;28;20030;-63
2022/05/19 10:25:08;;;;;;;4.50;3.80;;;27.70;99.90;;;;;;5000787;28;20402;-62
2022/05/19 10:31:04;;;;;;;5.15;3.60;;;27.20;99.90;;;;;;5017663;28;20036;-62
2022/05/19 10:34:09;;;;;;;6.32;3.53;;;27.00;99.90;;;;;;5017721;28;20381;-62
2022/05/19 10:36:47;;;;;;;6.60;5.05;;;26.90;99.90;;;;;;5015705;28;20318;-63
2022/05/19 10:39:35;;;;;;;7.30;5.70;;;26.80;99.90;;;;;;5017559;28;20062;-64
2022/05/19 10:42:25;;;;;;;12.50;7.57;;;26.30;99.90;;;;;;5017685;28;20025;-64
2022/05/19 10:45:02;;;;;;;16.60;7.97;;;25.50;99.90;;;;;;5017556;28;20091;-59
2022/05/19 10:47:47;;;;;;;34.22;10.15;;;24.10;99.90;;;;;;5017547;28;20065;-57
2022/05/19 10:50:35;;;;;;;28.70;5.70;;;22.20;99.90;;;;;;5017346;28;20401;-56
2022/05/19 10:53:31;;;;;;;20.73;4.95;;;20.60;99.90;;;;;;5017347;28;20034;-58
2022/05/19 10:56:43;;;;;;;33.42;9.55;;;19.60;99.90;;;;;;4996529;28;20045;-58
2022/05/19 10:59:24;;;;;;;69.68;13.13;;;19.20;99.90;;;;;;5006702;28;20360;-56
2022/05/19 11:01:50;;;;;;;35.00;15.63;;;19.00;99.90;;;;;;5016989;28;20421;-59
2022/05/19 11:04:40;;;;;;;46.83;20.77;;;18.90;99.90;;;;;;5017179;28;20081;-58
2022/05/19 11:07:21;;;;;;;38.88;20.88;;;18.90;99.90;;;;;;5017210;28;20030;-61
2022/05/19 11:10:14;;;;;;;65.40;24.48;;;18.80;99.90;;;;;;5017625;28;20036;-62
2022/05/19 11:13:17;;;;;;;53.70;28.25;;;18.80;99.90;;;;;;5017055;28;20105;-64
2022/05/19 11:16:12;;;;;;;49.60;29.95;;;18.90;99.90;;;;;;5016223;28;20262;-63
2022/05/19 11:18:46;;;;;;;54.50;33.42;;;19.00;99.90;;;;;;5016845;28;20037;-66
2022/05/19 11:21:38;;;;;;;57.10;34.38;;;19.00;99.90;;;;;;5016195;28;20025;-66
2022/05/19 11:24:21;;;;;;;60.78;34.65;;;19.00;99.90;;;;;;5016298;28;20512;-67
2022/05/19 11:26:47;;;;;;;43.70;26.75;;;19.00;99.90;;;;;;5016991;28;20348;-66
2022/05/19 11:29:37;;;;;;;43.20;27.10;;;19.00;99.90;;;;;;5016100;28;20026;-67
2022/05/19 11:32:19;;;;;;;55.67;31.45;;;19.00;99.90;;;;;;5016894;28;20041;-66
2022/05/19 11:35:14;;;;;;;49.25;29.70;;;19.00;99.90;;;;;;5016704;28;20048;-69
2022/05/19 11:37:52;;;;;;;47.85;30.33;;;18.90;99.90;;;;;;5016789;28;20033;-67
2022/05/19 11:40:34;;;;;;;61.22;36.97;;;19.10;99.90;;;;;;5016070;28;20034;-67
2022/05/19 11:43:13;;;;;;;47.38;32.75;;;19.20;99.90;;;;;;5016791;28;20026;-67
2022/05/19 11:46:02;;;;;;;49.42;32.15;;;19.20;99.90;;;;;;5016941;28;20408;-68
2022/05/19 11:55:17;;;;;;;52.13;36.17;;;19.30;99.90;;;;;;5016611;28;20033;-64
2022/05/19 11:58:03;;;;;;;43.17;32.13;;;19.60;99.90;;;;;;5015737;28;20030;-67
2022/05/19 12:00:52;;;;;;;63.55;37.50;;;19.70;99.90;;;;;;5016331;28;20302;-64
2022/05/19 12:03:21;;;;;;;44.92;32.60;;;19.70;99.90;;;;;;4999637;28;20038;-67
2022/05/19 12:05:53;;;;;;;47.10;30.67;;;19.50;99.90;;;;;;5016574;28;20049;-67
2022/05/19 12:08:39;;;;;;;45.43;31.90;;;19.50;99.90;;;;;;5015966;28;20029;-68
2022/05/19 12:11:22;;;;;;;52.45;32.22;;;19.50;99.90;;;;;;5017043;28;20061;-68
2022/05/19 12:14:06;;;;;;;42.47;29.73;;;19.50;99.90;;;;;;5018290;28;20065;-68
2022/05/19 12:16:55;;;;;;;46.05;32.80;;;19.80;99.90;;;;;;5020522;28;20041;-68
2022/05/19 12:19:54;;;;;;;27.60;23.80;;;20.40;99.90;;;;;;5019552;28;20103;-68
2022/05/19 12:22:42;;;;;;;18.38;16.48;;;21.80;99.90;;;;;;5019451;28;20038;-68
2022/05/19 12:25:24;;;;;;;17.20;15.40;;;22.10;99.90;;;;;;5020141;28;20037;-68
2022/05/19 12:28:23;;;;;;;14.55;13.13;;;22.20;99.90;;;;;;5019499;28;20048;-68
2022/05/19 12:33:58;;;;;;;12.30;11.20;;;22.50;99.90;;;;;;5020035;28;20049;-68
2022/05/19 12:36:26;;;;;;;;;;;23.10;99.90;;;;;;5019627;28;20069;-67
2022/05/19 12:39:06;;;;;;;11.02;10.00;;;23.50;99.90;;;;;;5019240;28;19913;-68
2022/05/19 12:41:52;;;;;;;10.00;9.20;;;23.40;99.90;;;;;;5020354;28;20040;-69
2022/05/19 12:44:39;;;;;;;9.70;8.68;;;22.70;99.90;;;;;;5019136;28;20390;-67
2022/05/19 12:47:19;;;;;;;12.82;10.27;;;21.80;99.90;;;;;;5018907;28;20022;-70
2022/05/19 12:50:25;;;;;;;11.90;10.70;;;21.50;99.90;;;;;;5020501;28;20334;-68
2022/05/19 12:52:53;;;;;;;14.60;10.88;;;21.30;99.90;;;;;;5019688;28;20034;-69
2022/05/19 12:55:22;;;;;;;13.48;11.38;;;21.20;99.90;;;;;;5018728;28;20112;-69
2022/05/19 12:57:50;;;;;;;14.95;12.80;;;21.20;99.90;;;;;;5019399;28;20105;-69
2022/05/19 13:00:23;;;;;;;18.25;14.13;;;21.40;99.90;;;;;;5018693;28;20042;-69
2022/05/19 13:02:52;;;;;;;13.63;11.63;;;21.80;99.90;;;;;;5019835;28;20053;-70
2022/05/19 13:05:46;;;;;;;12.73;11.10;;;22.00;99.90;;;;;;5019462;28;20030;-69
2022/05/19 13:08:15;;;;;;;12.20;11.00;;;22.70;99.90;;;;;;5019205;28;20316;-70
2022/05/19 13:10:44;;;;;;;9.98;8.20;;;23.80;99.90;;;;;;5019555;28;20301;-70
2022/05/19 13:13:43;;;;;;;8.40;7.60;;;24.20;99.90;;;;;;5020213;28;20037;-69
2022/05/19 13:16:24;;;;;;;8.35;7.50;;;23.90;99.90;;;;;;5018425;28;20022;-69
2022/05/19 13:18:58;;;;;;;8.32;7.20;;;24.00;99.90;;;;;;5019073;28;20030;-69
2022/05/19 13:21:31;;;;;;;5.82;5.32;;;25.10;99.90;;;;;;5019098;28;20018;-70
2022/05/19 13:24:02;;;;;;;6.03;5.45;;;25.20;99.90;;;;;;5019388;28;20041;-70